createdAt,value
2023-03-30T00:01:21.892Z,5.80
2023-03-30T00:03:50.488Z,7.27
2023-03-30T00:06:22.885Z,5.30
2023-03-30T00:08:57.237Z,6.10
2023-03-30T00:11:27.669Z,4.53
2023-03-30T00:13:56.012Z,8.27
2023-03-30T00:16:26.062Z,6.13
2023-03-30T00:18:54.513Z,4.73
2023-03-30T00:21:23.080Z,10.07
2023-03-30T00:23:52.444Z,7.33
2023-03-30T00:26:20.910Z,4.93
2023-03-30T00:28:49.277Z,4.97
2023-03-30T00:31:20.290Z,3.47
2023-03-30T00:33:50.265Z,4.47
2023-03-30T00:36:18.957Z,6.50
2023-03-30T00:38:49.275Z,3.80
2023-03-30T00:41:17.891Z,9.93
2023-03-30T00:43:58.579Z,7.80
2023-03-30T00:46:27.088Z,4.97
2023-03-30T00:48:59.728Z,4.10
2023-03-30T00:51:29.940Z,7.40
2023-03-30T00:54:05.782Z,5.70
2023-03-30T00:56:34.761Z,5.17
2023-03-30T00:59:04.129Z,6.03
2023-03-30T01:01:38.654Z,9.30
2023-03-30T01:04:10.988Z,4.57
2023-03-30T01:06:43.392Z,6.13
2023-03-30T01:09:12.025Z,4.67
2023-03-30T01:11:41.028Z,5.20
2023-03-30T01:14:12.534Z,3.93
2023-03-30T01:16:50.523Z,6.00
2023-03-30T01:20:13.029Z,3.20
2023-03-30T01:23:10.801Z,5.10
2023-03-30T01:26:12.561Z,6.67
2023-03-30T01:28:46.888Z,3.87
2023-03-30T01:31:42.045Z,5.23
2023-03-30T01:35:02.391Z,4.03
2023-03-30T01:38:19.003Z,6.80
2023-03-30T01:41:02.056Z,4.60
2023-03-30T01:43:38.024Z,3.53
2023-03-30T01:46:17.604Z,4.10
2023-03-30T01:48:54.756Z,3.50
2023-03-30T01:51:28.164Z,4.77
2023-03-30T01:54:03.655Z,6.33
2023-03-30T01:56:36.420Z,3.73
2023-03-30T01:59:12.613Z,3.30
2023-03-30T02:01:50.151Z,2.90
2023-03-30T02:04:23.909Z,6.27
2023-03-30T02:07:00.492Z,6.40
2023-03-30T02:09:30.893Z,7.13
2023-03-30T02:12:01.884Z,7.07
2023-03-30T02:14:34.799Z,4.30
2023-03-30T02:17:11.357Z,6.60
2023-03-30T02:19:39.866Z,3.60
2023-03-30T02:22:08.727Z,7.23
2023-03-30T02:24:38.029Z,3.57
2023-03-30T02:27:07.986Z,6.17
2023-03-30T02:29:40.188Z,4.77
2023-03-30T02:32:20.479Z,7.13
2023-03-30T02:35:11.294Z,3.80
2023-03-30T02:38:16.049Z,3.30
2023-03-30T02:40:57.957Z,5.33
2023-03-30T02:43:40.751Z,4.93
2023-03-30T02:46:25.733Z,4.47
2023-03-30T02:49:09.169Z,4.97
2023-03-30T02:51:46.863Z,2.30
2023-03-30T02:54:37.569Z,5.13
2023-03-30T02:57:38.197Z,8.63
2023-03-30T03:00:36.041Z,5.50
2023-03-30T03:03:12.947Z,2.50
2023-03-30T03:05:42.923Z,3.77
2023-03-30T03:08:16.530Z,6.17
2023-03-30T03:10:47.093Z,4.10
2023-03-30T03:13:16.943Z,5.47
2023-03-30T03:15:49.568Z,5.17
2023-03-30T03:18:18.671Z,3.20
2023-03-30T03:20:47.635Z,6.00
2023-03-30T03:23:16.056Z,4.83
2023-03-30T03:25:49.421Z,4.43
2023-03-30T03:28:20.138Z,5.13
2023-03-30T03:30:58.266Z,3.50
2023-03-30T03:33:27.476Z,5.80
2023-03-30T03:36:09.058Z,3.40
2023-03-30T03:38:42.228Z,3.23
2023-03-30T03:41:11.129Z,7.00
2023-03-30T03:43:41.636Z,5.40
2023-03-30T03:46:12.064Z,3.63
2023-03-30T03:48:41.444Z,4.73
2023-03-30T03:51:11.307Z,6.50
2023-03-30T03:53:39.732Z,3.47
2023-03-30T03:56:12.701Z,6.00
2023-03-30T03:58:41.220Z,4.70
2023-03-30T04:01:14.454Z,5.73
2023-03-30T04:03:42.994Z,7.20
2023-03-30T04:06:11.603Z,8.10
2023-03-30T04:08:40.092Z,5.47
2023-03-30T04:11:46.873Z,8.23
2023-03-30T04:14:30.909Z,9.73
2023-03-30T04:17:16.387Z,6.03
2023-03-30T04:20:04.170Z,10.90
2023-03-30T04:22:50.307Z,6.20
2023-03-30T04:25:48.103Z,12.10
2023-03-30T04:28:35.702Z,7.73
2023-03-30T04:31:35.902Z,9.93
2023-03-30T04:34:26.782Z,9.50
2023-03-30T04:37:08.475Z,7.53
2023-03-30T04:40:09.402Z,12.80
2023-03-30T04:43:02.352Z,7.73
2023-03-30T04:45:55.619Z,12.13
2023-03-30T04:48:42.504Z,7.43
2023-03-30T04:51:35.636Z,11.20
2023-03-30T04:54:12.639Z,9.50
2023-03-30T04:57:07.520Z,15.03
2023-03-30T04:59:46.280Z,12.20
2023-03-30T05:02:33.607Z,12.63
2023-03-30T05:05:20.564Z,11.87
2023-03-30T05:08:02.423Z,10.03
2023-03-30T05:10:47.726Z,7.67
2023-03-30T05:13:36.324Z,10.73
2023-03-30T05:16:20.168Z,10.70
2023-03-30T05:19:11.003Z,12.63
2023-03-30T05:21:45.755Z,7.80
2023-03-30T05:24:54.324Z,12.80
2023-03-30T05:27:37.291Z,9.17
2023-03-30T05:30:37.995Z,12.23
2023-03-30T05:33:24.888Z,13.47
2023-03-30T05:36:13.537Z,11.97
2023-03-30T05:39:01.894Z,14.43
2023-03-30T05:41:54.279Z,23.43
2023-03-30T05:44:46.951Z,11.23
2023-03-30T05:47:50.325Z,21.13
2023-03-30T05:50:37.482Z,16.30
2023-03-30T05:53:09.598Z,16.90
2023-03-30T05:56:01.244Z,16.37
2023-03-30T05:58:49.669Z,21.23
2023-03-30T06:01:41.329Z,20.07
2023-03-30T06:04:10.072Z,13.73
2023-03-30T06:06:39.178Z,15.80
2023-03-30T06:09:07.584Z,24.27
2023-03-30T06:11:37.862Z,27.40
2023-03-30T06:14:23.538Z,16.90
2023-03-30T06:17:21.127Z,13.10
2023-03-30T06:19:50.511Z,15.80
2023-03-30T06:22:18.972Z,11.50
2023-03-30T06:24:52.624Z,14.43
2023-03-30T06:27:22.296Z,13.70
2023-03-30T06:29:52.057Z,20.17
2023-03-30T06:32:20.504Z,16.20
2023-03-30T06:35:18.306Z,19.27
2023-03-30T06:37:47.168Z,13.27
2023-03-30T06:40:17.367Z,13.33
2023-03-30T06:42:49.535Z,16.30
2023-03-30T06:45:31.677Z,19.87
2023-03-30T06:48:00.405Z,18.30
2023-03-30T06:50:30.092Z,16.13
2023-03-30T06:53:07.783Z,13.90
2023-03-30T06:55:43.106Z,14.70
2023-03-30T06:58:16.824Z,16.10
2023-03-30T07:00:47.066Z,21.33
2023-03-30T07:03:34.100Z,10.97
2023-03-30T07:06:21.006Z,15.87
2023-03-30T07:08:50.443Z,18.73
2023-03-30T07:11:23.764Z,18.30
2023-03-30T07:13:55.452Z,14.73
2023-03-30T07:16:25.711Z,13.87
2023-03-30T07:18:55.057Z,15.93
2023-03-30T07:21:23.887Z,15.47
2023-03-30T07:23:52.558Z,12.30
2023-03-30T07:26:32.739Z,16.13
2023-03-30T07:29:07.436Z,17.83
2023-03-30T07:31:38.234Z,22.13
2023-03-30T07:34:09.401Z,14.40
2023-03-30T07:36:42.262Z,20.10
2023-03-30T07:39:11.204Z,14.13
2023-03-30T07:41:41.769Z,16.03
2023-03-30T07:44:10.165Z,20.10
2023-03-30T07:46:41.231Z,11.83
2023-03-30T07:49:15.315Z,17.40
2023-03-30T07:51:43.792Z,21.27
2023-03-30T07:54:25.465Z,20.10
2023-03-30T07:57:14.170Z,16.80
2023-03-30T07:59:42.690Z,20.37
2023-03-30T08:02:22.456Z,17.57
2023-03-30T08:04:53.980Z,15.73
2023-03-30T08:07:43.062Z,23.87
2023-03-30T08:10:20.763Z,26.77
2023-03-30T08:12:49.331Z,23.53
2023-03-30T08:15:17.875Z,23.23
2023-03-30T08:17:47.725Z,19.43
2023-03-30T08:20:16.124Z,18.20
2023-03-30T08:22:44.577Z,20.63
2023-03-30T08:25:13.004Z,18.53
2023-03-30T08:27:41.375Z,23.00
2023-03-30T08:30:13.150Z,23.50
2023-03-30T08:32:41.552Z,21.17
2023-03-30T08:35:13.078Z,19.97
2023-03-30T08:37:42.040Z,20.33
2023-03-30T08:40:13.816Z,21.40
2023-03-30T08:43:12.909Z,25.57
2023-03-30T08:45:44.204Z,15.43
2023-03-30T08:48:19.119Z,30.43
2023-03-30T08:50:57.438Z,30.27
2023-03-30T08:53:26.547Z,23.33
2023-03-30T08:56:02.477Z,20.47
2023-03-30T08:58:44.040Z,25.47
2023-03-30T09:01:22.040Z,24.77
2023-03-30T09:04:09.135Z,26.43
2023-03-30T09:06:49.993Z,27.47
2023-03-30T09:09:22.326Z,26.63
2023-03-30T09:11:56.628Z,22.80
2023-03-30T09:14:35.560Z,25.33
2023-03-30T09:17:13.080Z,22.23
2023-03-30T09:19:52.369Z,27.83
2023-03-30T09:22:26.214Z,20.23
2023-03-30T09:24:55.513Z,26.43
2023-03-30T09:27:36.018Z,28.00
2023-03-30T09:30:20.042Z,25.20
2023-03-30T09:33:00.914Z,30.87
2023-03-30T09:35:40.405Z,20.37
2023-03-30T09:38:14.289Z,24.70
2023-03-30T09:41:07.334Z,32.10
2023-03-30T09:43:44.038Z,27.23
2023-03-30T09:46:14.109Z,20.33
2023-03-30T09:48:44.646Z,25.63
2023-03-30T09:51:25.205Z,34.83
2023-03-30T09:54:01.688Z,18.80
2023-03-30T09:56:40.927Z,24.23
2023-03-30T09:59:23.589Z,28.27
2023-03-30T10:01:51.947Z,23.40
2023-03-30T10:04:20.806Z,27.63
2023-03-30T10:06:51.486Z,21.60
2023-03-30T10:09:25.047Z,27.53
2023-03-30T10:11:56.145Z,25.90
2023-03-30T10:14:31.663Z,25.37
2023-03-30T10:17:01.256Z,17.97
2023-03-30T10:19:30.724Z,20.80
2023-03-30T10:22:04.283Z,19.63
2023-03-30T10:24:36.795Z,20.47
2023-03-30T10:27:12.880Z,18.90
2023-03-30T10:29:48.659Z,25.13
2023-03-30T10:32:21.529Z,17.80
2023-03-30T10:34:53.422Z,26.50
2023-03-30T10:37:30.112Z,21.17
2023-03-30T10:40:02.507Z,25.57
2023-03-30T10:42:34.275Z,26.80
2023-03-30T10:45:05.688Z,21.57
2023-03-30T10:47:58.025Z,24.90
2023-03-30T10:50:36.804Z,17.20
2023-03-30T10:53:26.328Z,22.00
2023-03-30T10:56:04.608Z,16.80
2023-03-30T10:59:17.392Z,16.20
2023-03-30T11:02:01.496Z,21.70
2023-03-30T11:04:38.365Z,18.10
2023-03-30T11:07:17.790Z,20.87
2023-03-30T11:09:55.042Z,19.57
2023-03-30T11:12:31.457Z,17.57
2023-03-30T11:15:04.160Z,14.83
2023-03-30T11:17:36.326Z,15.60
2023-03-30T11:20:20.896Z,14.97
2023-03-30T11:22:54.543Z,20.13
2023-03-30T11:25:28.028Z,23.60
2023-03-30T11:28:07.040Z,26.00
2023-03-30T11:30:37.696Z,24.40
2023-03-30T11:33:20.110Z,16.63
2023-03-30T11:35:52.069Z,16.47
2023-03-30T11:38:27.556Z,14.03
2023-03-30T11:41:01.983Z,16.80
2023-03-30T11:43:32.860Z,15.50
2023-03-30T11:46:08.004Z,18.20
2023-03-30T11:49:10.603Z,14.40
2023-03-30T11:52:08.363Z,15.80
2023-03-30T11:55:07.189Z,18.07
2023-03-30T11:57:45.258Z,19.50
2023-03-30T12:00:31.126Z,18.13
2023-03-30T12:03:13.458Z,17.23
2023-03-30T12:05:47.250Z,18.50
2023-03-30T12:08:38.166Z,18.37
2023-03-30T12:11:17.497Z,15.10
2023-03-30T12:13:51.250Z,13.57
2023-03-30T12:16:30.281Z,19.00
2023-03-30T12:19:13.012Z,14.73
2023-03-30T12:21:53.024Z,21.33
2023-03-30T12:24:30.715Z,22.03
2023-03-30T12:27:06.227Z,18.47
2023-03-30T12:32:29.233Z,19.57
2023-03-30T12:34:59.448Z,15.53
2023-03-30T12:37:34.784Z,22.97
2023-03-30T12:40:10.355Z,21.50
2023-03-30T12:42:46.365Z,20.30
2023-03-30T12:45:32.297Z,23.43
2023-03-30T12:48:33.697Z,21.53
2023-03-30T12:51:16.399Z,17.60
2023-03-30T12:54:17.577Z,16.67
2023-03-30T12:56:58.273Z,23.00
2023-03-30T12:59:53.334Z,12.90
2023-03-30T13:02:44.787Z,17.20
2023-03-30T13:05:24.922Z,16.00
2023-03-30T13:07:56.327Z,18.20
2023-03-30T13:10:42.137Z,15.87
2023-03-30T13:13:24.063Z,17.33
2023-03-30T13:15:57.159Z,22.27
2023-03-30T13:18:52.691Z,14.40
2023-03-30T13:21:25.973Z,18.70
2023-03-30T13:24:36.955Z,22.60
2023-03-30T13:27:29.689Z,20.03
2023-03-30T13:30:01.029Z,17.00
2023-03-30T13:32:54.011Z,16.33
2023-03-30T13:35:38.978Z,24.90
2023-03-30T13:38:50.682Z,20.30
2023-03-30T13:41:38.457Z,15.60
2023-03-30T13:44:29.548Z,16.27
2023-03-30T13:47:10.907Z,19.43
2023-03-30T13:49:52.813Z,18.70
2023-03-30T13:52:38.371Z,16.83
2023-03-30T13:55:19.004Z,18.90
2023-03-30T13:57:47.419Z,16.50
2023-03-30T14:00:39.665Z,17.47
2023-03-30T14:03:39.890Z,13.33
2023-03-30T14:06:17.557Z,14.27
2023-03-30T14:08:49.078Z,16.93
2023-03-30T14:11:22.105Z,9.10
2023-03-30T14:13:53.397Z,12.77
2023-03-30T14:16:24.278Z,14.40
2023-03-30T14:18:53.224Z,10.63
2023-03-30T14:21:24.316Z,16.13
2023-03-30T14:23:55.256Z,15.93
2023-03-30T14:26:28.858Z,16.17
2023-03-30T14:28:58.801Z,16.57
2023-03-30T14:31:28.013Z,13.23
2023-03-30T14:33:56.739Z,13.47
2023-03-30T14:36:25.568Z,13.70
2023-03-30T14:38:57.528Z,20.13
2023-03-30T14:41:29.416Z,12.80
2023-03-30T14:44:01.315Z,12.17
2023-03-30T14:46:41.258Z,15.30
2023-03-30T14:49:15.999Z,9.67
2023-03-30T14:51:48.426Z,11.33
2023-03-30T14:54:19.780Z,13.37
2023-03-30T14:56:57.704Z,7.17
2023-03-30T14:59:27.912Z,6.70
2023-03-30T15:01:57.405Z,9.30
2023-03-30T15:04:33.007Z,10.20
2023-03-30T15:07:01.459Z,10.47
2023-03-30T15:09:37.929Z,14.53
2023-03-30T15:12:09.004Z,11.50
2023-03-30T15:14:40.549Z,11.83
2023-03-30T15:17:12.795Z,14.60
2023-03-30T15:19:41.860Z,16.10
2023-03-30T15:22:20.807Z,13.20
2023-03-30T15:24:49.334Z,15.20
2023-03-30T15:27:19.470Z,13.30
2023-03-30T15:29:48.288Z,15.77
2023-03-30T15:32:20.061Z,14.03
2023-03-30T15:35:21.143Z,15.67
2023-03-30T15:37:56.790Z,20.27
2023-03-30T15:40:36.175Z,18.80
2023-03-30T15:43:21.249Z,20.33
2023-03-30T15:45:53.349Z,11.87
2023-03-30T15:48:26.954Z,14.00
2023-03-30T15:51:03.635Z,13.93
2023-03-30T15:53:40.933Z,16.40
2023-03-30T15:56:18.773Z,16.97
2023-03-30T15:58:50.000Z,16.10
2023-03-30T16:01:18.871Z,11.97
2023-03-30T16:03:56.320Z,15.30
2023-03-30T16:06:25.405Z,16.90
2023-03-30T16:08:53.854Z,21.27
2023-03-30T16:11:23.828Z,11.40
2023-03-30T16:13:55.002Z,11.70
2023-03-30T16:16:23.441Z,18.70
2023-03-30T16:18:52.207Z,15.10
2023-03-30T16:21:24.422Z,21.53
2023-03-30T16:23:53.046Z,19.03
2023-03-30T16:26:21.781Z,17.73
2023-03-30T16:28:55.009Z,16.10
2023-03-30T16:31:24.863Z,11.83
2023-03-30T16:33:53.522Z,15.80
2023-03-30T16:36:24.112Z,12.67
2023-03-30T16:38:52.554Z,12.93
2023-03-30T16:41:23.502Z,16.23
2023-03-30T16:43:53.248Z,14.20
2023-03-30T16:46:22.191Z,19.10
2023-03-30T16:48:50.866Z,16.83
2023-03-30T16:51:20.109Z,12.57
2023-03-30T16:53:48.802Z,17.60
2023-03-30T16:56:19.315Z,16.73
2023-03-30T16:58:49.559Z,19.23
2023-03-30T17:01:19.586Z,13.83
2023-03-30T17:03:48.249Z,17.43
2023-03-30T17:06:17.184Z,15.17
2023-03-30T17:08:46.343Z,15.13
2023-03-30T17:11:15.234Z,16.80
2023-03-30T17:13:46.159Z,11.60
2023-03-30T17:16:16.519Z,19.63
2023-03-30T17:18:46.446Z,19.23
2023-03-30T17:21:17.209Z,13.73
2023-03-30T17:23:47.865Z,19.03
2023-03-30T17:26:17.177Z,12.47
2023-03-30T17:28:46.519Z,16.03
2023-03-30T17:31:18.008Z,16.07
2023-03-30T17:33:48.810Z,13.80
2023-03-30T17:36:19.986Z,19.30
2023-03-30T17:38:48.968Z,12.73
2023-03-30T17:41:19.534Z,21.47
2023-03-30T17:43:49.083Z,11.30
2023-03-30T17:46:20.700Z,15.67
2023-03-30T17:48:51.268Z,13.00
2023-03-30T17:51:19.676Z,20.07
2023-03-30T17:53:48.038Z,20.67
2023-03-30T17:56:16.414Z,11.20
2023-03-30T17:58:44.858Z,11.50
2023-03-30T18:01:13.840Z,17.13
2023-03-30T18:03:42.826Z,13.73
2023-03-30T18:06:13.899Z,17.97
2023-03-30T18:08:43.058Z,13.73
2023-03-30T18:11:11.703Z,15.40
2023-03-30T18:13:40.046Z,13.17
2023-03-30T18:16:08.707Z,15.23
2023-03-30T18:18:37.248Z,13.87
2023-03-30T18:21:06.818Z,9.50
2023-03-30T18:23:37.309Z,13.87
2023-03-30T18:26:11.109Z,11.30
2023-03-30T18:28:43.779Z,14.00
2023-03-30T18:31:12.762Z,8.53
2023-03-30T18:33:41.395Z,14.60
2023-03-30T18:36:13.273Z,14.77
2023-03-30T18:38:44.104Z,12.80
2023-03-30T18:41:13.877Z,18.07
2023-03-30T18:43:42.219Z,11.93
2023-03-30T18:46:13.800Z,11.57
2023-03-30T18:48:42.416Z,9.20
2023-03-30T18:51:12.511Z,11.33
2023-03-30T18:53:42.226Z,18.73
2023-03-30T18:56:13.755Z,17.63
2023-03-30T18:58:43.028Z,15.20
2023-03-30T19:01:13.324Z,17.80
2023-03-30T19:03:42.360Z,17.00
2023-03-30T19:06:14.016Z,13.00
2023-03-30T19:08:44.121Z,11.30
2023-03-30T19:11:17.331Z,18.27
2023-03-30T19:13:47.124Z,14.67
2023-03-30T19:16:16.956Z,12.97
2023-03-30T19:18:45.750Z,14.87
2023-03-30T19:21:17.073Z,19.37
2023-03-30T19:23:46.791Z,19.17
2023-03-30T19:26:15.423Z,14.97
2023-03-30T19:28:43.859Z,16.87
2023-03-30T19:31:15.976Z,11.67
2023-03-30T19:33:44.743Z,20.73
2023-03-30T19:36:13.145Z,13.33
2023-03-30T19:38:43.891Z,16.63
2023-03-30T19:41:13.933Z,13.53
2023-03-30T19:43:42.302Z,15.80
2023-03-30T19:46:10.889Z,17.60
2023-03-30T19:48:39.262Z,15.03
2023-03-30T19:51:07.884Z,16.13
2023-03-30T19:53:37.207Z,14.80
2023-03-30T19:56:11.084Z,12.60
2023-03-30T19:58:40.864Z,14.60
2023-03-30T20:01:10.385Z,18.47
2023-03-30T20:03:38.971Z,15.00
2023-03-30T20:06:11.606Z,10.13
2023-03-30T20:08:40.184Z,23.13
2023-03-30T20:11:09.574Z,18.60
2023-03-30T20:13:37.994Z,18.67
2023-03-30T20:16:07.912Z,14.93
2023-03-30T20:18:36.484Z,15.30
2023-03-30T20:21:05.840Z,17.83
2023-03-30T20:23:34.418Z,21.63
2023-03-30T20:26:04.507Z,16.30
2023-03-30T20:28:33.221Z,22.53
2023-03-30T20:31:01.957Z,15.37
2023-03-30T20:33:33.942Z,14.30
2023-03-30T20:36:02.416Z,17.43
2023-03-30T20:38:30.989Z,12.57
2023-03-30T20:41:02.856Z,16.73
2023-03-30T20:46:03.181Z,16.63
2023-03-30T20:48:39.153Z,20.20
2023-03-30T20:51:10.294Z,13.50
2023-03-30T20:53:39.315Z,18.97
2023-03-30T20:56:10.366Z,15.20
2023-03-30T20:58:40.087Z,13.37
2023-03-30T21:01:19.113Z,15.97
2023-03-30T21:03:50.082Z,24.33
2023-03-30T21:06:23.640Z,18.27
2023-03-30T21:08:52.419Z,19.80
2023-03-30T21:11:22.644Z,21.67
2023-03-30T21:13:51.598Z,16.33
2023-03-30T21:16:20.177Z,17.87
2023-03-30T21:18:50.679Z,30.40
2023-03-30T21:21:19.356Z,24.77
2023-03-30T21:23:47.912Z,17.90
2023-03-30T21:26:18.569Z,19.17
2023-03-30T21:28:47.272Z,15.30
2023-03-30T21:31:17.244Z,19.43
2023-03-30T21:33:45.936Z,21.10
2023-03-30T21:36:15.751Z,18.13
2023-03-30T21:38:44.094Z,18.47
2023-03-30T21:41:14.800Z,16.27
2023-03-30T21:43:45.619Z,35.70
2023-03-30T21:46:16.347Z,13.53
2023-03-30T21:48:46.741Z,17.70
2023-03-30T21:51:19.336Z,19.53
2023-03-30T21:53:51.077Z,14.07
2023-03-30T21:56:22.318Z,21.30
2023-03-30T21:58:51.265Z,19.03
2023-03-30T22:01:21.455Z,16.63
2023-03-30T22:03:49.967Z,18.80
2023-03-30T22:06:19.895Z,22.70
2023-03-30T22:08:48.606Z,16.43
2023-03-30T22:11:20.190Z,17.33
2023-03-30T22:13:49.753Z,12.53
2023-03-30T22:16:22.476Z,17.43
2023-03-30T22:18:51.874Z,16.60
2023-03-30T22:21:24.973Z,11.53
2023-03-30T22:23:54.717Z,27.90
2023-03-30T22:26:23.708Z,17.97
2023-03-30T22:28:52.053Z,14.90
2023-03-30T22:31:20.506Z,20.00
2023-03-30T22:33:49.379Z,14.87
2023-03-30T22:36:20.494Z,19.90
2023-03-30T22:38:52.107Z,17.07
2023-03-30T22:41:23.867Z,12.33
2023-03-30T22:43:53.701Z,18.03
2023-03-30T22:46:22.302Z,12.30
2023-03-30T22:48:51.841Z,15.47
2023-03-30T22:51:23.594Z,12.20
2023-03-30T22:53:53.903Z,21.97
2023-03-30T22:56:22.228Z,15.63
2023-03-30T22:58:50.560Z,12.63
2023-03-30T23:01:19.623Z,18.27
2023-03-30T23:03:48.694Z,22.83
2023-03-30T23:06:19.093Z,16.40
2023-03-30T23:08:48.712Z,10.90
2023-03-30T23:11:21.556Z,12.97
2023-03-30T23:13:52.311Z,13.83
2023-03-30T23:16:20.730Z,11.80
2023-03-30T23:18:49.804Z,17.67
2023-03-30T23:21:18.464Z,13.77
2023-03-30T23:23:46.838Z,15.10
2023-03-30T23:26:15.146Z,14.07
2023-03-30T23:28:45.391Z,17.37
2023-03-30T23:31:16.664Z,11.27
2023-03-30T23:33:45.448Z,15.40
2023-03-30T23:36:14.244Z,8.27
2023-03-30T23:38:42.863Z,11.23
2023-03-30T23:41:13.690Z,17.47
2023-03-30T23:43:42.153Z,10.70
2023-03-30T23:46:12.348Z,6.37
2023-03-30T23:48:42.081Z,12.63
2023-03-30T23:51:11.121Z,8.50
2023-03-30T23:53:40.264Z,11.00
2023-03-30T23:56:12.938Z,7.67
2023-03-30T23:58:42.412Z,5.33
